Time;durP1;ratioP1;P1;durP2;ratioP2;P2;SDS_P1;SDS_P2;PMS_P1;PMS_P2;Temp;Humidity;BMP_temperature;BMP_pressure;BME280_temperature;BME280_humidity;BME280_pressure;Samples;Min_cycle;Max_cycle;Signal;HPM_P1;HPM_P2
2023/12/15 00:00:03;;;;;;;11.15;5.00;;;3.70;99.90;;;2.79;100.00;98301.66;4986870;28;20034;-35
2023/12/15 00:02:29;;;;;;;11.23;5.30;;;3.60;99.90;;;2.79;100.00;98317.28;4998475;28;20036;-36
2023/12/15 00:04:55;;;;;;;9.45;4.78;;;3.70;99.90;;;2.76;100.00;98307.69;5008435;28;20066;-36
2023/12/15 00:07:21;;;;;;;12.88;5.30;;;3.60;99.90;;;2.75;100.00;98310.31;4999336;28;20040;-35
2023/12/15 00:09:46;;;;;;;11.43;5.45;;;3.70;99.90;;;2.79;100.00;98306.88;4999762;28;20088;-35
2023/12/15 00:12:12;;;;;;;11.13;5.13;;;3.60;99.90;;;2.74;100.00;98313.75;4997548;28;20034;-35
2023/12/15 00:14:38;;;;;;;15.88;5.93;;;3.60;99.90;;;2.72;100.00;98311.16;5000663;28;20038;-36
2023/12/15 00:17:03;;;;;;;11.77;5.57;;;3.60;99.90;;;2.70;100.00;98322.41;4988553;28;20402;-35
2023/12/15 00:19:29;;;;;;;12.90;5.15;;;3.60;99.90;;;2.71;100.00;98325.03;4998704;28;20065;-35
2023/12/15 00:21:55;;;;;;;9.63;5.05;;;3.60;99.90;;;2.72;100.00;98326.78;4992637;28;20049;-37
2023/12/15 00:24:20;;;;;;;11.07;5.45;;;3.60;99.90;;;2.74;100.00;98332.00;5002600;28;20063;-36
2023/12/15 00:26:46;;;;;;;15.23;5.82;;;3.60;99.90;;;2.66;100.00;98322.38;5000737;28;20417;-36
2023/12/15 00:29:12;;;;;;;12.68;5.47;;;3.60;99.90;;;2.70;100.00;98336.31;4997944;28;20120;-36
2023/12/15 00:31:38;;;;;;;14.88;4.95;;;3.60;99.90;;;2.70;100.00;98330.25;4984156;28;20528;-36
2023/12/15 00:34:04;;;;;;;12.07;5.88;;;3.60;99.90;;;2.68;100.00;98345.84;4995222;28;21916;-36
2023/12/15 00:36:30;;;;;;;12.35;5.68;;;3.60;99.90;;;2.57;100.00;98340.53;4999763;28;20025;-36
2023/12/15 00:38:55;;;;;;;16.10;5.43;;;3.60;99.90;;;2.62;100.00;98350.97;4996530;28;20513;-35
2023/12/15 00:41:21;;;;;;;10.38;5.40;;;3.50;99.90;;;2.60;100.00;98360.50;4998069;28;20092;-36
2023/12/15 00:43:47;;;;;;;10.05;4.90;;;3.50;99.90;;;2.53;100.00;98358.69;5000665;28;20531;-37
2023/12/15 00:46:15;;;;;;;12.57;5.75;;;3.50;99.90;;;2.52;100.00;98363.03;4989206;28;20057;-36
2023/12/15 00:48:42;;;;;;;11.18;5.10;;;3.40;99.90;;;2.51;100.00;98363.03;5001340;28;20072;-36
2023/12/15 00:51:07;;;;;;;13.82;5.53;;;3.40;99.90;;;2.50;100.00;98369.09;4996455;28;20037;-36
2023/12/15 00:53:33;;;;;;;10.18;4.90;;;3.40;99.90;;;2.45;100.00;98375.13;4995565;28;20509;-36
2023/12/15 00:56:00;;;;;;;11.27;5.05;;;3.40;99.90;;;2.42;100.00;98375.09;4994882;28;20025;-36
2023/12/15 00:58:25;;;;;;;10.13;4.72;;;3.40;99.90;;;2.39;100.00;98369.00;5001170;28;20029;-35
2023/12/15 01:00:51;;;;;;;10.68;4.57;;;3.30;99.90;;;2.32;100.00;98362.84;4994052;28;20038;-35
2023/12/15 01:03:17;;;;;;;10.43;4.70;;;3.30;99.90;;;2.40;100.00;98375.94;4997512;28;20084;-35
2023/12/15 01:05:43;;;;;;;12.48;5.07;;;3.30;99.90;;;2.38;100.00;98383.72;4997549;28;20046;-35
2023/12/15 01:08:08;;;;;;;9.55;4.40;;;3.30;99.90;;;2.40;100.00;98384.59;4991897;28;20309;-36
2023/12/15 01:10:34;;;;;;;9.48;4.40;;;3.30;99.90;;;2.38;100.00;98386.31;4998335;28;20271;-36
2023/12/15 01:13:00;;;;;;;8.73;4.53;;;3.30;99.90;;;2.38;100.00;98391.53;4985904;28;20041;-36
2023/12/15 01:15:25;;;;;;;8.43;4.30;;;3.30;99.90;;;2.41;100.00;98390.72;4997758;28;20057;-35
2023/12/15 01:17:51;;;;;;;11.85;4.85;;;3.30;99.90;;;2.28;100.00;98381.88;4998848;28;20033;-36
2023/12/15 01:20:17;;;;;;;9.55;4.78;;;3.30;99.90;;;2.33;100.00;98390.59;4992168;28;20402;-36
2023/12/15 01:22:43;;;;;;;7.93;4.43;;;3.30;99.90;;;2.41;100.00;98415.00;4996300;28;20118;-36
2023/12/15 01:25:09;;;;;;;8.82;4.30;;;3.30;99.90;;;2.36;100.00;98401.06;4995040;28;20950;-36
2023/12/15 01:27:35;;;;;;;9.73;4.93;;;3.30;99.90;;;2.42;100.00;98421.06;4999137;28;20037;-35
2023/12/15 01:30:01;;;;;;;9.57;4.45;;;3.30;99.90;;;2.32;100.00;98412.28;4999351;28;20037;-35
2023/12/15 01:32:27;;;;;;;8.90;4.80;;;3.30;99.90;;;2.41;100.00;98425.41;4998748;28;20485;-36
2023/12/15 01:34:53;;;;;;;11.57;4.80;;;3.30;99.90;;;2.41;100.00;98435.84;4995191;28;20045;-36
2023/12/15 01:37:18;;;;;;;9.38;4.47;;;3.30;99.90;;;2.45;100.00;98437.59;5001118;28;20023;-36
2023/12/15 01:39:44;;;;;;;10.40;5.15;;;3.30;99.90;;;2.47;100.00;98445.44;4997445;28;20033;-36
2023/12/15 01:42:10;;;;;;;11.88;5.68;;;3.30;99.90;;;2.44;100.00;98445.41;4998567;28;20135;-36
2023/12/15 01:44:35;;;;;;;12.15;5.30;;;3.40;99.90;;;2.49;100.00;98448.94;4990962;28;20033;-36
2023/12/15 01:47:02;;;;;;;11.38;5.60;;;3.40;99.90;;;2.41;100.00;98440.19;4993928;28;20026;-36
2023/12/15 01:49:29;;;;;;;11.07;5.97;;;3.40;99.90;;;2.45;100.00;98447.16;4995587;28;20034;-36
2023/12/15 01:51:55;;;;;;;11.23;5.93;;;3.40;99.90;;;2.44;100.00;98456.72;5000842;28;20072;-36
2023/12/15 01:54:21;;;;;;;13.18;6.35;;;3.40;99.90;;;2.40;100.00;98452.28;5000450;28;21055;-36
2023/12/15 01:56:46;;;;;;;9.35;5.28;;;3.30;99.90;;;2.39;100.00;98460.13;4997432;28;20026;-36
2023/12/15 01:59:12;;;;;;;10.80;5.97;;;3.30;99.90;;;2.40;100.00;98460.09;4994965;28;20104;-36
2023/12/15 02:01:38;;;;;;;11.48;5.70;;;3.30;99.90;;;2.26;100.00;98438.22;4994683;28;20068;-36
2023/12/15 02:04:04;;;;;;;13.23;6.03;;;3.20;99.90;;;2.26;100.00;98456.44;4993278;28;21556;-36
2023/12/15 02:06:30;;;;;;;10.95;5.72;;;3.20;99.90;;;2.18;100.00;98452.91;5000197;28;20489;-36
2023/12/15 02:08:56;;;;;;;8.45;4.95;;;3.10;99.90;;;2.13;100.00;98464.97;4980311;28;20041;-35
2023/12/15 02:11:22;;;;;;;8.75;4.93;;;3.00;99.90;;;2.01;100.00;98463.06;4995480;28;20514;-35
2023/12/15 02:13:47;;;;;;;9.15;5.00;;;2.90;99.90;;;1.86;100.00;98446.38;4995618;28;20036;-35
2023/12/15 02:16:13;;;;;;;9.02;4.85;;;2.80;99.90;;;1.86;100.00;98456.78;4991716;28;20034;-35
2023/12/15 02:18:39;;;;;;;9.65;5.13;;;2.80;99.90;;;1.94;100.00;98472.53;4994193;28;20451;-35
2023/12/15 02:21:05;;;;;;;9.35;4.63;;;2.80;99.90;;;1.98;100.00;98471.72;4993237;28;20041;-35
2023/12/15 02:23:31;;;;;;;8.07;4.63;;;2.80;99.90;;;1.91;100.00;98469.88;4997383;28;20196;-35
2023/12/15 02:25:56;;;;;;;9.30;5.00;;;2.80;99.90;;;1.78;100.00;98473.16;4999141;28;20221;-35
2023/12/15 02:28:22;;;;;;;9.23;4.95;;;2.70;99.90;;;1.66;100.00;98466.88;4997988;28;20060;-36
2023/12/15 02:30:48;;;;;;;7.53;4.53;;;2.60;99.90;;;1.60;100.00;98468.50;4992278;28;20021;-36
2023/12/15 02:33:14;;;;;;;8.77;4.70;;;2.50;99.90;;;1.52;100.00;98471.00;4980806;28;20033;-36
2023/12/15 02:35:41;;;;;;;8.13;5.03;;;2.40;99.90;;;1.46;100.00;98481.31;4985029;28;20239;-36
2023/12/15 02:38:10;;;;;;;9.38;5.05;;;2.30;99.90;;;1.32;100.00;98471.53;4990978;28;20510;-36
2023/12/15 02:40:36;;;;;;;9.68;5.13;;;2.30;99.90;;;1.34;100.00;98480.22;4992719;28;20033;-36
2023/12/15 02:43:02;;;;;;;10.23;5.43;;;2.20;99.90;;;1.39;100.00;98477.72;5000256;28;20033;-36
2023/12/15 02:45:28;;;;;;;9.95;5.13;;;2.30;99.90;;;1.47;100.00;98486.53;4993646;28;20029;-36
2023/12/15 02:47:53;;;;;;;8.98;5.15;;;2.40;99.90;;;1.58;100.00;98491.91;4982855;28;20056;-36
2023/12/15 02:50:19;;;;;;;10.73;5.97;;;2.50;99.90;;;1.68;100.00;98490.31;4991231;28;20570;-36
2023/12/15 02:52:45;;;;;;;10.57;6.13;;;2.60;99.90;;;1.66;100.00;98484.22;4999921;28;20033;-36
2023/12/15 02:55:13;;;;;;;11.52;6.25;;;2.60;99.90;;;1.84;100.00;98500.09;4989546;28;20431;-36
2023/12/15 02:57:39;;;;;;;9.05;5.28;;;2.70;99.90;;;1.89;100.00;98495.84;4996727;28;20025;-36
2023/12/15 03:00:06;;;;;;;10.63;5.45;;;2.80;99.90;;;1.91;100.00;98509.75;4993213;28;20439;-36
2023/12/15 03:02:35;;;;;;;10.38;5.47;;;2.80;99.90;;;1.93;100.00;98503.72;4980062;28;20121;-37
2023/12/15 03:05:01;;;;;;;11.80;5.90;;;2.80;99.90;;;1.96;100.00;98517.66;4991242;28;20476;-35
2023/12/15 03:07:27;;;;;;;15.93;5.93;;;2.80;99.90;;;1.98;100.00;98522.88;4995902;28;20451;-36
2023/12/15 03:09:52;;;;;;;12.00;5.80;;;2.90;99.90;;;2.01;100.00;98517.69;4992100;28;20046;-36
2023/12/15 03:12:18;;;;;;;9.57;5.13;;;2.90;99.90;;;1.98;100.00;98510.75;4997227;28;20048;-36
2023/12/15 03:14:44;;;;;;;10.88;5.82;;;3.00;99.90;;;2.08;100.00;98522.13;4997391;28;20463;-36
2023/12/15 03:17:10;;;;;;;8.00;4.82;;;3.00;99.90;;;2.14;100.00;98531.78;4988037;28;20446;-35
2023/12/15 03:19:39;;;;;;;9.15;5.22;;;3.00;99.90;;;2.16;100.00;98535.28;4990988;28;20036;-35
2023/12/15 03:22:04;;;;;;;9.15;5.05;;;3.10;99.90;;;2.20;100.00;98543.16;5002778;28;20556;-35
2023/12/15 03:24:30;;;;;;;11.52;5.80;;;3.10;99.90;;;2.23;100.00;98540.59;5002585;28;20038;-35
2023/12/15 03:26:56;;;;;;;9.48;5.20;;;3.10;99.90;;;2.26;100.00;98545.84;5000429;28;20336;-36
2023/12/15 03:29:22;;;;;;;9.70;5.90;;;3.10;99.90;;;2.25;100.00;98538.03;5001879;28;20088;-36
2023/12/15 03:31:47;;;;;;;9.38;5.55;;;3.20;99.90;;;2.22;100.00;98532.75;4997466;28;20026;-36
2023/12/15 03:34:13;;;;;;;7.85;4.68;;;3.20;99.90;;;2.28;100.00;98544.16;4997757;28;20030;-36
2023/12/15 03:36:39;;;;;;;8.50;4.78;;;3.20;99.90;;;2.32;100.00;98550.28;5004072;28;20029;-36
2023/12/15 03:39:06;;;;;;;7.70;4.82;;;3.20;99.90;;;2.34;100.00;98553.78;5001860;28;20038;-36
2023/12/15 03:41:32;;;;;;;6.60;4.20;;;3.20;99.90;;;2.36;100.00;98554.66;5002792;28;20394;-36
2023/12/15 03:43:57;;;;;;;8.48;5.13;;;3.30;99.90;;;2.37;100.00;98556.44;4998769;28;20482;-36
2023/12/15 03:46:23;;;;;;;7.78;4.78;;;3.30;99.90;;;2.37;100.00;98568.53;4998855;28;20053;-36
2023/12/15 03:48:49;;;;;;;8.70;4.97;;;3.30;99.90;;;2.36;100.00;98564.22;5000334;28;20048;-36
2023/12/15 03:51:14;;;;;;;7.15;4.93;;;3.30;99.90;;;2.38;100.00;98571.19;5000590;28;20548;-36
2023/12/15 03:53:40;;;;;;;7.93;4.55;;;3.30;99.90;;;2.42;100.00;98567.78;5000275;28;20022;-36
2023/12/15 03:56:07;;;;;;;6.97;4.35;;;3.30;99.90;;;2.37;100.00;98545.13;5003519;28;20112;-36
2023/12/15 03:58:33;;;;;;;8.73;4.80;;;3.40;99.90;;;2.47;100.00;98573.03;4999417;28;20048;-36
2023/12/15 04:00:58;;;;;;;11.10;4.70;;;3.40;99.90;;;2.30;100.00;98536.38;4997703;28;20026;-36
2023/12/15 04:03:24;;;;;;;7.63;4.78;;;3.40;99.90;;;2.48;100.00;98570.47;4993213;28;20041;-36
2023/12/15 04:05:50;;;;;;;9.75;4.90;;;3.40;99.90;;;2.50;100.00;98574.81;4992345;28;20129;-36
2023/12/15 04:08:15;;;;;;;7.65;4.85;;;3.40;99.90;;;2.54;100.00;98574.00;4995599;28;20506;-36
2023/12/15 04:10:41;;;;;;;8.45;4.45;;;3.40;99.90;;;2.57;100.00;98572.31;4999860;28;20122;-36
2023/12/15 04:13:07;;;;;;;8.38;4.68;;;3.50;99.90;;;2.59;100.00;98568.00;4996053;28;20040;-36
2023/12/15 04:15:32;;;;;;;9.32;4.68;;;3.40;99.90;;;2.62;100.00;98585.38;4995846;28;20034;-36
2023/12/15 04:18:03;;;;;;;9.80;5.05;;;3.50;99.90;;;2.60;100.00;98587.09;4994850;28;20042;-36
2023/12/15 04:20:29;;;;;;;8.55;4.97;;;3.50;99.90;;;2.60;100.00;98584.50;4999850;28;20033;-37
2023/12/15 04:22:54;;;;;;;8.00;4.68;;;3.50;99.90;;;2.61;100.00;98594.06;4993315;28;20033;-36
2023/12/15 04:25:20;;;;;;;8.93;4.68;;;3.50;99.90;;;2.62;100.00;98596.72;5000917;28;20079;-36
2023/12/15 04:27:47;;;;;;;8.70;4.88;;;3.50;99.90;;;2.60;100.00;98601.03;5000936;28;20089;-36
2023/12/15 04:30:13;;;;;;;10.48;4.57;;;3.50;99.90;;;2.65;100.00;98604.53;4993716;28;20180;-36
2023/12/15 04:32:39;;;;;;;9.18;4.70;;;3.50;99.90;;;2.66;100.00;98608.91;4993994;28;20441;-36
2023/12/15 04:35:06;;;;;;;9.18;4.80;;;3.50;99.90;;;2.65;100.00;98603.69;4996139;28;20030;-34
2023/12/15 04:37:31;;;;;;;8.38;4.65;;;3.50;99.90;;;2.70;100.00;98617.66;5000568;28;20214;-36
2023/12/15 04:39:57;;;;;;;8.27;5.25;;;3.50;99.90;;;2.66;100.00;98613.25;4992259;28;20042;-36
2023/12/15 04:42:23;;;;;;;8.93;5.18;;;3.60;99.90;;;2.68;100.00;98611.53;5005043;28;20171;-36
2023/12/15 04:44:48;;;;;;;7.90;4.85;;;3.60;99.90;;;2.66;100.00;98608.91;4998070;28;20409;-36
2023/12/15 04:47:14;;;;;;;9.48;4.90;;;3.60;99.90;;;2.62;100.00;98606.22;4997494;28;20073;-36
2023/12/15 04:49:40;;;;;;;7.65;4.78;;;3.60;99.90;;;2.70;100.00;98617.66;4997517;28;20030;-36
2023/12/15 04:52:06;;;;;;;7.53;4.70;;;3.60;99.90;;;2.61;100.00;98610.56;4996991;28;20065;-36
2023/12/15 04:54:31;;;;;;;7.10;4.18;;;3.60;99.90;;;2.70;100.00;98628.06;4996857;28;20099;-36
2023/12/15 04:56:57;;;;;;;8.32;4.95;;;3.60;99.90;;;2.70;100.00;98632.41;4993286;28;20092;-36
2023/12/15 04:59:23;;;;;;;7.13;3.90;;;3.60;99.90;;;2.70;100.00;98635.88;5002595;28;20026;-36
2023/12/15 05:01:48;;;;;;;8.35;4.90;;;3.60;99.90;;;2.70;100.00;98641.09;4992758;28;20037;-36
2023/12/15 05:04:14;;;;;;;7.40;4.20;;;3.60;99.90;;;2.74;100.00;98636.78;4996192;28;20041;-36
2023/12/15 05:06:40;;;;;;;6.75;4.35;;;3.60;99.90;;;2.75;100.00;98641.16;4998020;28;20040;-36
2023/12/15 05:09:08;;;;;;;7.95;4.45;;;3.60;99.90;;;2.65;100.00;98625.38;4995990;28;20487;-34
2023/12/15 05:11:35;;;;;;;9.75;4.80;;;3.60;99.90;;;2.74;100.00;98637.66;4997132;28;20494;-37
2023/12/15 05:14:01;;;;;;;6.60;4.15;;;3.60;99.90;;;2.71;100.00;98635.03;4999949;28;20403;-34
2023/12/15 05:16:28;;;;;;;7.38;4.07;;;3.60;99.90;;;2.66;100.00;98628.88;4996117;28;20060;-37
2023/12/15 05:18:54;;;;;;;7.10;3.92;;;3.60;99.90;;;2.75;100.00;98649.84;4998357;28;20434;-36
2023/12/15 05:21:20;;;;;;;7.55;4.22;;;3.60;99.90;;;2.74;100.00;98650.69;4994885;28;20560;-36
2023/12/15 05:23:45;;;;;;;6.72;4.47;;;3.60;99.90;;;2.73;100.00;98650.66;4996337;28;20380;-36
2023/12/15 05:26:15;;;;;;;9.07;4.53;;;3.60;99.90;;;2.73;100.00;98659.38;4996676;28;20037;-36
2023/12/15 05:28:41;;;;;;;10.77;5.05;;;3.60;99.90;;;2.72;100.00;98661.97;4996198;28;20664;-36
2023/12/15 05:31:07;;;;;;;8.20;4.78;;;3.60;99.90;;;2.68;100.00;98671.47;5008399;28;20033;-36
2023/12/15 05:33:33;;;;;;;9.35;5.28;;;3.60;99.90;;;2.69;100.00;98678.41;5001065;28;20087;-36
2023/12/15 05:35:58;;;;;;;7.68;4.90;;;3.60;99.90;;;2.72;100.00;98681.06;4998712;28;20030;-36
2023/12/15 05:38:24;;;;;;;9.27;5.95;;;3.60;99.90;;;2.79;100.00;98684.63;4999482;28;20058;-35
2023/12/15 05:40:52;;;;;;;9.55;5.18;;;3.60;99.90;;;2.74;100.00;98694.97;4990739;28;20113;-36
2023/12/15 05:43:18;;;;;;;7.50;5.03;;;3.60;99.90;;;2.74;100.00;98694.13;4995509;28;20044;-36
2023/12/15 05:45:43;;;;;;;8.45;4.93;;;3.70;99.90;;;2.76;100.00;98703.69;4996531;28;20030;-36
2023/12/15 05:48:10;;;;;;;9.50;4.40;;;3.70;99.90;;;2.73;100.00;98701.06;4994880;28;20581;-35
2023/12/15 05:50:35;;;;;;;7.15;4.57;;;3.60;99.90;;;2.80;100.00;98723.75;4998873;28;20577;-35
2023/12/15 05:53:01;;;;;;;8.02;5.10;;;3.70;99.90;;;2.67;100.00;98700.94;4999764;28;20034;-35
2023/12/15 05:55:27;;;;;;;8.43;4.95;;;3.70;99.90;;;2.80;100.00;98726.34;5000527;28;20060;-35
2023/12/15 05:57:52;;;;;;;7.00;4.65;;;3.70;99.90;;;2.82;100.00;98724.66;4999585;28;20036;-35
2023/12/15 06:00:18;;;;;;;9.85;5.13;;;3.70;99.90;;;2.85;100.00;98729.00;4989423;28;20473;-35
2023/12/15 06:02:44;;;;;;;7.32;5.15;;;3.70;99.90;;;2.83;100.00;98718.56;4996189;28;20022;-35
2023/12/15 06:05:10;;;;;;;8.40;5.28;;;3.70;99.90;;;2.85;100.00;98723.81;4999963;28;20120;-35
2023/12/15 06:07:36;;;;;;;10.05;5.20;;;3.80;99.90;;;2.93;100.00;98734.38;4995230;28;20042;-36
2023/12/15 06:10:01;;;;;;;8.07;4.95;;;3.80;99.90;;;2.91;100.00;98739.53;4989632;28;20034;-36
2023/12/15 06:12:27;;;;;;;8.65;4.75;;;3.80;99.90;;;2.94;100.00;98744.78;4999163;28;20540;-36
2023/12/15 06:14:53;;;;;;;7.38;4.85;;;3.80;99.90;;;2.96;100.00;98744.81;4994263;28;20084;-36
2023/12/15 06:17:20;;;;;;;7.55;4.80;;;3.80;99.90;;;2.97;100.00;98752.66;4999633;28;20029;-36
2023/12/15 06:19:45;;;;;;;8.35;4.88;;;3.90;99.90;;;2.96;100.00;98752.63;4997032;28;20058;-36
2023/12/15 06:22:11;;;;;;;9.10;4.85;;;3.90;99.90;;;2.94;100.00;98743.91;4997433;28;20041;-36
2023/12/15 06:24:36;;;;;;;8.23;5.30;;;3.90;99.90;;;3.06;100.00;98765.81;4998684;28;20049;-36
2023/12/15 06:27:03;;;;;;;9.93;5.70;;;3.90;99.90;;;2.96;100.00;98760.44;4998754;28;20795;-36
2023/12/15 06:29:29;;;;;;;8.32;5.32;;;3.90;99.90;;;3.06;100.00;98778.84;4993308;28;20033;-36
2023/12/15 06:31:55;;;;;;;12.95;7.28;;;3.90;99.90;;;3.03;100.00;98776.22;4991170;28;20048;-36
2023/12/15 06:34:20;;;;;;;12.65;7.53;;;3.90;99.90;;;3.04;100.00;98775.34;4994372;28;20381;-36
2023/12/15 06:36:46;;;;;;;10.95;6.57;;;3.90;99.90;;;3.05;100.00;98784.03;4994850;28;20030;-36
2023/12/15 06:39:12;;;;;;;8.63;5.13;;;3.90;99.90;;;3.06;100.00;98776.25;4987658;28;20034;-35
2023/12/15 06:41:38;;;;;;;8.93;5.15;;;3.90;99.90;;;3.06;100.00;98777.97;4999218;28;20021;-35
2023/12/15 06:44:05;;;;;;;7.40;4.68;;;3.90;99.90;;;3.05;100.00;98784.03;4994395;28;20052;-35
2023/12/15 06:46:31;;;;;;;9.20;4.63;;;3.90;99.90;;;3.03;100.00;98791.88;4988573;28;20052;-35
2023/12/15 06:48:56;;;;;;;7.72;4.50;;;3.90;99.90;;;3.04;100.00;98797.94;4993416;28;20541;-35
2023/12/15 06:51:22;;;;;;;10.27;4.95;;;3.90;99.90;;;3.04;100.00;98797.94;4995253;28;20070;-35
2023/12/15 06:53:48;;;;;;;7.47;4.50;;;3.90;99.90;;;3.01;100.00;98803.09;4999459;28;20115;-35
2023/12/15 06:56:13;;;;;;;7.55;4.95;;;3.90;99.90;;;3.04;100.00;98809.25;5001390;28;20044;-35
2023/12/15 06:58:39;;;;;;;8.38;5.25;;;3.90;99.90;;;3.04;100.00;98816.19;4997658;28;20103;-36
2023/12/15 07:01:05;;;;;;;9.10;5.28;;;3.90;99.90;;;3.03;100.00;98810.13;4993412;28;20387;-36
2023/12/15 07:03:31;;;;;;;8.88;5.82;;;3.90;99.90;;;3.05;100.00;98811.00;4999072;28;20089;-36
2023/12/15 07:05:56;;;;;;;10.65;5.80;;;3.90;99.90;;;3.05;100.00;98812.72;4999620;28;20041;-36
2023/12/15 07:08:22;;;;;;;10.35;5.95;;;3.90;99.90;;;3.07;100.00;98824.06;4996120;28;20045;-36
2023/12/15 07:10:48;;;;;;;9.85;5.38;;;3.90;99.90;;;3.04;100.00;98832.69;4995716;28;20693;-36
2023/12/15 07:13:13;;;;;;;9.25;5.88;;;3.90;99.90;;;3.04;100.00;98831.81;4993003;28;20120;-36
2023/12/15 07:15:39;;;;;;;9.23;5.53;;;3.90;99.90;;;3.05;100.00;98828.34;4997574;28;20030;-36
2023/12/15 07:18:05;;;;;;;9.15;4.90;;;3.90;99.90;;;3.05;100.00;98828.34;4999430;28;20029;-35
2023/12/15 07:20:30;;;;;;;10.05;6.00;;;3.90;99.90;;;3.08;100.00;98836.22;4992609;28;20121;-35
2023/12/15 07:22:56;;;;;;;12.02;5.53;;;3.90;99.90;;;3.05;100.00;98837.06;4990449;28;20025;-35
2023/12/15 07:25:24;;;;;;;8.63;5.57;;;3.90;99.90;;;3.08;100.00;98841.44;4996128;28;20782;-35
2023/12/15 07:27:50;;;;;;;9.30;5.13;;;3.90;99.90;;;3.07;100.00;98850.13;5000697;28;20041;-36
2023/12/15 07:30:16;;;;;;;8.32;5.53;;;3.90;99.90;;;3.11;100.00;98840.63;4994384;28;20045;-36
2023/12/15 07:32:42;;;;;;;8.02;5.15;;;4.00;99.90;;;3.12;100.00;98851.06;4995356;28;20037;-36
2023/12/15 07:35:08;;;;;;;9.85;5.60;;;4.00;99.90;;;3.14;100.00;98858.91;4993454;28;20039;-36
2023/12/15 07:37:34;;;;;;;8.65;5.38;;;4.00;99.90;;;3.14;100.00;98853.69;4993500;28;20034;-35
2023/12/15 07:40:00;;;;;;;9.82;5.72;;;4.00;99.90;;;3.19;100.00;98863.34;4993181;28;20053;-35
2023/12/15 07:42:26;;;;;;;11.25;6.43;;;4.00;99.90;;;3.20;100.00;98866.84;4997863;28;20029;-35
2023/12/15 07:44:52;;;;;;;11.40;6.50;;;4.10;99.90;;;3.24;100.00;98859.06;4990642;28;20726;-35
2023/12/15 07:47:18;;;;;;;9.80;6.05;;;4.10;99.90;;;3.29;100.00;98874.81;4996901;28;20042;-36
2023/12/15 07:49:43;;;;;;;8.75;5.38;;;4.10;99.90;;;3.35;100.00;98874.03;4996810;28;20275;-36
2023/12/15 07:52:09;;;;;;;10.00;4.63;;;4.20;99.90;;;3.36;100.00;98874.06;5000075;28;20026;-36
2023/12/15 07:54:35;;;;;;;9.82;5.22;;;4.20;99.90;;;3.35;100.00;98868.81;5000101;28;20542;-36
2023/12/15 07:57:00;;;;;;;8.20;4.93;;;4.20;99.90;;;3.41;100.00;98868.88;4995656;28;20026;-36
2023/12/15 07:59:26;;;;;;;9.50;5.28;;;4.20;99.90;;;3.43;100.00;98870.69;4991593;28;20041;-35
2023/12/15 08:01:55;;;;;;;9.10;4.85;;;4.30;99.90;;;3.44;100.00;98879.38;4995199;28;20045;-36
2023/12/15 08:04:20;;;;;;;8.50;5.10;;;4.30;99.90;;;3.49;100.00;98884.69;4993756;28;20553;-36
2023/12/15 08:06:46;;;;;;;7.90;5.10;;;4.30;99.90;;;3.54;100.00;98893.47;5003580;28;20049;-36
2023/12/15 08:09:12;;;;;;;8.65;5.30;;;4.40;99.90;;;3.54;100.00;98891.72;5000240;28;20552;-36
2023/12/15 08:11:38;;;;;;;8.82;5.22;;;4.40;99.90;;;3.45;100.00;98881.16;4997700;28;20034;-36
2023/12/15 08:14:04;;;;;;;8.70;5.70;;;4.40;99.90;;;3.58;100.00;98893.50;5000621;28;20191;-35
2023/12/15 08:16:30;;;;;;;8.95;5.28;;;4.50;99.90;;;3.64;100.00;98900.53;5001707;28;20029;-35
2023/12/15 08:19:03;;;;;;;10.05;5.57;;;4.50;99.90;;;3.60;100.00;98886.56;4995601;28;20123;-35
2023/12/15 08:21:28;;;;;;;9.90;5.97;;;4.50;99.90;;;3.70;100.00;98898.03;4998705;28;20460;-36
2023/12/15 08:23:54;;;;;;;10.07;6.55;;;4.50;99.90;;;3.73;100.00;98903.31;5001391;28;20427;-35
2023/12/15 08:26:23;;;;;;;10.35;5.78;;;4.60;99.90;;;3.57;100.00;98886.56;5003521;28;20350;-36
2023/12/15 08:28:49;;;;;;;9.82;5.40;;;4.50;99.90;;;3.69;100.00;98917.16;4998108;28;20038;-35
2023/12/15 08:31:15;;;;;;;9.40;5.97;;;4.60;99.90;;;3.63;100.00;98889.22;5002889;28;20018;-35
2023/12/15 08:33:42;;;;;;;8.45;5.22;;;4.60;99.90;;;3.75;100.00;98913.75;5001621;28;20034;-35
2023/12/15 08:36:09;;;;;;;9.30;5.10;;;4.60;99.90;;;3.73;100.00;98897.19;5001157;28;20038;-36
2023/12/15 08:38:35;;;;;;;10.90;5.90;;;4.60;99.90;;;3.90;100.00;98913.97;5000076;28;20040;-37
2023/12/15 08:41:03;;;;;;;9.40;5.65;;;4.70;99.90;;;3.93;100.00;98908.81;5005810;28;20049;-36
2023/12/15 08:43:29;;;;;;;9.35;5.82;;;4.80;99.90;;;4.11;100.00;98928.16;4988320;28;20033;-36
2023/12/15 08:45:54;;;;;;;9.95;5.85;;;4.90;99.90;;;4.09;100.00;98922.06;4995215;28;20037;-36
2023/12/15 08:48:20;;;;;;;8.95;5.05;;;5.00;99.90;;;4.21;100.00;98946.59;4990705;28;20773;-36
2023/12/15 08:50:46;;;;;;;8.32;5.35;;;5.00;99.90;;;4.24;100.00;98944.91;4998884;28;20128;-36
2023/12/15 08:53:16;;;;;;;8.90;5.25;;;5.00;99.90;;;4.24;100.00;98931.84;4999295;28;20042;-36
2023/12/15 08:55:42;;;;;;;11.85;5.90;;;5.10;99.90;;;4.26;100.00;98932.72;4994133;28;20034;-35
2023/12/15 08:58:09;;;;;;;11.45;5.95;;;5.10;99.90;;;4.36;100.00;98947.63;4994306;28;20034;-35
2023/12/15 09:00:36;;;;;;;8.48;5.63;;;5.20;99.90;;;4.36;100.00;98955.47;4989816;28;20556;-36
2023/12/15 09:03:02;;;;;;;9.48;6.03;;;5.20;99.90;;;4.39;100.00;98953.78;4999542;28;20030;-35
2023/12/15 09:05:28;;;;;;;10.73;6.00;;;5.20;99.90;;;4.38;100.00;98965.09;5000650;28;20512;-36
2023/12/15 09:07:54;;;;;;;9.23;5.75;;;5.20;99.90;;;4.41;100.00;98964.25;4996614;28;20030;-36
2023/12/15 09:10:20;;;;;;;9.80;6.55;;;5.20;99.90;;;4.43;100.00;98964.28;4988677;28;20077;-36
2023/12/15 09:12:46;;;;;;;9.35;5.63;;;5.30;99.90;;;4.45;100.00;98959.94;4992169;28;20034;-36
2023/12/15 09:15:13;;;;;;;12.32;6.32;;;5.30;99.90;;;4.52;100.00;98951.31;4991967;28;20029;-36
2023/12/15 09:17:41;;;;;;;10.60;5.72;;;5.40;99.90;;;4.54;100.00;98957.44;5000501;28;20080;-36
2023/12/15 09:20:07;;;;;;;11.85;5.45;;;5.40;99.90;;;4.59;100.00;98961.91;4995262;28;20497;-36
2023/12/15 09:22:33;;;;;;;10.40;6.40;;;5.40;99.90;;;4.70;100.00;98972.47;5001704;28;20413;-36
2023/12/15 09:24:59;;;;;;;10.02;5.63;;;5.50;99.90;;;4.78;100.00;98978.66;5000932;28;20034;-34
2023/12/15 09:27:24;;;;;;;9.70;5.80;;;5.50;99.90;;;4.85;100.00;98981.34;4998487;28;20038;-36
2023/12/15 09:29:50;;;;;;;9.80;6.05;;;5.60;99.90;;;4.92;100.00;98983.19;4995214;28;20089;-36
2023/12/15 09:32:16;;;;;;;11.40;6.60;;;5.70;99.90;;;5.03;100.00;98978.06;5017517;28;20564;-36
2023/12/15 09:34:41;;;;;;;8.55;5.60;;;5.80;99.90;;;5.09;100.00;98980.72;4997651;28;20041;-36
2023/12/15 09:37:08;;;;;;;10.88;6.43;;;5.90;99.90;;;5.15;100.00;98979.06;4995541;28;20041;-37
2023/12/15 09:39:33;;;;;;;12.30;6.80;;;6.00;99.90;;;5.20;100.00;98984.31;4997923;28;20494;-36
2023/12/15 09:41:59;;;;;;;9.85;6.18;;;6.00;99.90;;;5.31;100.00;98979.19;4993973;28;20660;-36
2023/12/15 09:44:25;;;;;;;10.80;6.07;;;6.10;99.90;;;5.33;100.00;98983.59;4989213;28;20037;-36
2023/12/15 09:46:51;;;;;;;10.02;6.05;;;6.10;99.90;;;5.43;100.00;98989.78;4991529;28;20087;-37
2023/12/15 09:49:18;;;;;;;11.88;6.82;;;6.20;99.90;;;5.50;100.00;98994.19;4992477;28;20047;-36
2023/12/15 09:51:52;;;;;;;10.27;6.20;;;6.30;99.90;;;5.46;100.00;98987.19;5003191;28;20037;-36
2023/12/15 09:54:20;;;;;;;10.48;6.38;;;6.20;99.90;;;5.43;100.00;98992.38;5000961;28;20029;-36
2023/12/15 09:56:46;;;;;;;11.27;6.63;;;6.20;99.90;;;5.43;100.00;98987.16;4999500;28;21268;-36
2023/12/15 09:59:13;;;;;;;9.25;6.35;;;6.20;99.90;;;5.33;100.00;98983.59;4998356;28;20037;-36
2023/12/15 10:01:39;;;;;;;9.75;6.28;;;6.20;99.90;;;5.29;100.00;98987.06;4998571;28;20113;-37
2023/12/15 10:04:06;;;;;;;8.68;5.72;;;6.10;99.90;;;5.24;100.00;98987.84;4998978;28;20041;-36
2023/12/15 10:06:38;;;;;;;9.55;5.90;;;6.00;99.90;;;5.27;100.00;98990.50;5001394;28;20030;-37
2023/12/15 10:09:14;;;;;;;14.00;6.68;;;6.00;99.90;;;5.32;100.00;98997.53;4996863;28;20092;-36
2023/12/15 10:11:43;;;;;;;10.25;6.55;;;6.10;99.90;;;5.42;100.00;98995.88;4992235;28;20201;-37
2023/12/15 10:14:09;;;;;;;9.77;6.40;;;6.20;99.90;;;5.46;100.00;98992.44;4998103;28;20026;-36
2023/12/15 10:16:38;;;;;;;8.65;5.93;;;6.30;99.90;;;5.48;100.00;98981.97;4998515;28;20025;-37